sensor_id;sensor_type;location;lat;lon;timestamp;temperature;humidity
10263;DHT22;5177;50.068;8.156;2022-08-25T00:00:45;24.00;5.90
10263;DHT22;5177;50.068;8.156;2022-08-25T00:03:11;24.00;7.20
10263;DHT22;5177;50.068;8.156;2022-08-25T00:05:37;24.00;16.80
10263;DHT22;5177;50.068;8.156;2022-08-25T00:08:03;23.90;31.50
10263;DHT22;5177;50.068;8.156;2022-08-25T00:10:31;23.90;46.10
10263;DHT22;5177;50.068;8.156;2022-08-25T00:12:57;23.90;74.30
10263;DHT22;5177;50.068;8.156;2022-08-25T00:15:23;23.80;88.40
10263;DHT22;5177;50.068;8.156;2022-08-25T00:17:48;23.80;97.00
10263;DHT22;5177;50.068;8.156;2022-08-25T00:20:14;23.70;99.90
10263;DHT22;5177;50.068;8.156;2022-08-25T00:22:40;23.70;99.90
10263;DHT22;5177;50.068;8.156;2022-08-25T00:25:06;23.70;99.90
10263;DHT22;5177;50.068;8.156;2022-08-25T00:27:31;23.60;99.90
10263;DHT22;5177;50.068;8.156;2022-08-25T00:29:57;23.60;99.90
10263;DHT22;5177;50.068;8.156;2022-08-25T00:32:22;23.50;99.90
10263;DHT22;5177;50.068;8.156;2022-08-25T00:34:49;23.60;99.90
10263;DHT22;5177;50.068;8.156;2022-08-25T00:37:15;23.50;99.90
10263;DHT22;5177;50.068;8.156;2022-08-25T00:39:41;23.50;99.90
10263;DHT22;5177;50.068;8.156;2022-08-25T00:42:06;23.40;99.90
10263;DHT22;5177;50.068;8.156;2022-08-25T00:44:32;23.40;99.90
10263;DHT22;5177;50.068;8.156;2022-08-25T00:47:00;23.40;99.90
10263;DHT22;5177;50.068;8.156;2022-08-25T00:49:28;23.30;99.90
10263;DHT22;5177;50.068;8.156;2022-08-25T00:51:57;23.30;99.90
10263;DHT22;5177;50.068;8.156;2022-08-25T00:54:25;23.20;1.00
10263;DHT22;5177;50.068;8.156;2022-08-25T00:56:51;23.20;1.00
10263;DHT22;5177;50.068;8.156;2022-08-25T00:59:21;23.20;1.00
10263;DHT22;5177;50.068;8.156;2022-08-25T01:01:47;23.10;1.00
10263;DHT22;5177;50.068;8.156;2022-08-25T01:04:14;23.10;1.00
10263;DHT22;5177;50.068;8.156;2022-08-25T01:06:40;23.00;1.00
10263;DHT22;5177;50.068;8.156;2022-08-25T01:09:07;23.00;1.00
10263;DHT22;5177;50.068;8.156;2022-08-25T01:11:33;23.00;1.00
10263;DHT22;5177;50.068;8.156;2022-08-25T01:13:59;22.90;1.80
10263;DHT22;5177;50.068;8.156;2022-08-25T01:16:27;22.90;74.70
10263;DHT22;5177;50.068;8.156;2022-08-25T01:18:54;22.80;99.90
10263;DHT22;5177;50.068;8.156;2022-08-25T01:21:21;22.80;99.90
10263;DHT22;5177;50.068;8.156;2022-08-25T01:23:47;22.70;99.90
10263;DHT22;5177;50.068;8.156;2022-08-25T01:26:15;22.70;99.90
10263;DHT22;5177;50.068;8.156;2022-08-25T01:28:42;22.70;1.00
10263;DHT22;5177;50.068;8.156;2022-08-25T01:31:28;22.60;1.00
10263;DHT22;5177;50.068;8.156;2022-08-25T01:33:54;22.70;1.00
10263;DHT22;5177;50.068;8.156;2022-08-25T01:36:20;22.70;1.00
10263;DHT22;5177;50.068;8.156;2022-08-25T01:38:46;22.70;99.90
10263;DHT22;5177;50.068;8.156;2022-08-25T01:41:11;22.60;99.90
10263;DHT22;5177;50.068;8.156;2022-08-25T01:43:37;22.70;99.90
10263;DHT22;5177;50.068;8.156;2022-08-25T01:46:03;22.60;99.90
10263;DHT22;5177;50.068;8.156;2022-08-25T01:48:28;22.60;99.90
10263;DHT22;5177;50.068;8.156;2022-08-25T01:50:54;22.60;99.90
10263;DHT22;5177;50.068;8.156;2022-08-25T01:53:26;22.60;1.00
10263;DHT22;5177;50.068;8.156;2022-08-25T01:55:51;22.50;1.00
10263;DHT22;5177;50.068;8.156;2022-08-25T01:58:39;22.50;1.00
10263;DHT22;5177;50.068;8.156;2022-08-25T02:01:06;22.50;1.00
10263;DHT22;5177;50.068;8.156;2022-08-25T02:03:35;22.40;1.00
10263;DHT22;5177;50.068;8.156;2022-08-25T02:06:02;22.50;1.00
10263;DHT22;5177;50.068;8.156;2022-08-25T02:08:27;22.40;1.00
10263;DHT22;5177;50.068;8.156;2022-08-25T02:10:53;22.40;53.60
10263;DHT22;5177;50.068;8.156;2022-08-25T02:13:19;22.40;99.90
10263;DHT22;5177;50.068;8.156;2022-08-25T02:15:46;22.30;99.90
10263;DHT22;5177;50.068;8.156;2022-08-25T02:18:12;22.30;99.90
10263;DHT22;5177;50.068;8.156;2022-08-25T02:20:38;22.30;99.90
10263;DHT22;5177;50.068;8.156;2022-08-25T02:23:04;22.30;99.90
10263;DHT22;5177;50.068;8.156;2022-08-25T02:25:29;22.30;1.00
10263;DHT22;5177;50.068;8.156;2022-08-25T02:27:55;22.20;1.00
10263;DHT22;5177;50.068;8.156;2022-08-25T02:30:20;22.20;1.00
10263;DHT22;5177;50.068;8.156;2022-08-25T02:32:46;22.20;1.00
10263;DHT22;5177;50.068;8.156;2022-08-25T02:38:02;22.20;7.80
10263;DHT22;5177;50.068;8.156;2022-08-25T02:40:28;22.10;99.90
10263;DHT22;5177;50.068;8.156;2022-08-25T02:42:54;22.10;99.90
10263;DHT22;5177;50.068;8.156;2022-08-25T02:45:20;22.10;99.90
10263;DHT22;5177;50.068;8.156;2022-08-25T02:47:45;22.10;99.90
10263;DHT22;5177;50.068;8.156;2022-08-25T02:50:11;22.00;99.90
10263;DHT22;5177;50.068;8.156;2022-08-25T02:52:36;22.00;1.00
10263;DHT22;5177;50.068;8.156;2022-08-25T02:57:53;22.00;99.90
10263;DHT22;5177;50.068;8.156;2022-08-25T03:00:18;22.00;89.00
10263;DHT22;5177;50.068;8.156;2022-08-25T03:02:44;22.00;99.90
10263;DHT22;5177;50.068;8.156;2022-08-25T03:05:11;21.90;1.00
10263;DHT22;5177;50.068;8.156;2022-08-25T03:07:36;22.00;99.90
10263;DHT22;5177;50.068;8.156;2022-08-25T03:10:03;21.90;99.90
10263;DHT22;5177;50.068;8.156;2022-08-25T03:12:30;21.90;1.00
10263;DHT22;5177;50.068;8.156;2022-08-25T03:14:55;21.90;4.50
10263;DHT22;5177;50.068;8.156;2022-08-25T03:17:21;21.90;99.90
10263;DHT22;5177;50.068;8.156;2022-08-25T03:19:46;21.80;99.90
10263;DHT22;5177;50.068;8.156;2022-08-25T03:22:12;21.90;99.90
10263;DHT22;5177;50.068;8.156;2022-08-25T03:24:37;21.80;99.90
10263;DHT22;5177;50.068;8.156;2022-08-25T03:27:03;21.80;99.90
10263;DHT22;5177;50.068;8.156;2022-08-25T03:29:32;21.80;16.30
10263;DHT22;5177;50.068;8.156;2022-08-25T03:31:58;21.80;44.30
10263;DHT22;5177;50.068;8.156;2022-08-25T03:34:25;21.80;81.40
10263;DHT22;5177;50.068;8.156;2022-08-25T03:36:52;21.80;99.90
10263;DHT22;5177;50.068;8.156;2022-08-25T03:39:18;21.80;99.90
10263;DHT22;5177;50.068;8.156;2022-08-25T03:41:44;21.80;1.00
10263;DHT22;5177;50.068;8.156;2022-08-25T03:44:11;21.80;1.00
10263;DHT22;5177;50.068;8.156;2022-08-25T03:46:41;21.80;1.00
10263;DHT22;5177;50.068;8.156;2022-08-25T03:49:09;21.80;1.00
10263;DHT22;5177;50.068;8.156;2022-08-25T03:51:56;21.80;1.00
10263;DHT22;5177;50.068;8.156;2022-08-25T03:54:21;21.70;99.90
10263;DHT22;5177;50.068;8.156;2022-08-25T03:56:47;21.80;1.00
10263;DHT22;5177;50.068;8.156;2022-08-25T03:59:12;21.70;70.30
10263;DHT22;5177;50.068;8.156;2022-08-25T04:01:39;21.70;99.90
10263;DHT22;5177;50.068;8.156;2022-08-25T04:04:06;21.70;1.00
10263;DHT22;5177;50.068;8.156;2022-08-25T04:06:32;21.70;99.90
10263;DHT22;5177;50.068;8.156;2022-08-25T04:08:57;21.70;1.00
10263;DHT22;5177;50.068;8.156;2022-08-25T04:11:24;21.70;99.90
10263;DHT22;5177;50.068;8.156;2022-08-25T04:13:50;21.70;99.90
10263;DHT22;5177;50.068;8.156;2022-08-25T04:16:17;21.60;99.90
10263;DHT22;5177;50.068;8.156;2022-08-25T04:18:43;21.60;1.00
10263;DHT22;5177;50.068;8.156;2022-08-25T04:21:09;21.60;1.00
10263;DHT22;5177;50.068;8.156;2022-08-25T04:23:36;21.60;1.00
10263;DHT22;5177;50.068;8.156;2022-08-25T04:29:06;21.50;1.00
10263;DHT22;5177;50.068;8.156;2022-08-25T04:31:32;21.50;1.00
10263;DHT22;5177;50.068;8.156;2022-08-25T04:33:58;21.40;1.00
10263;DHT22;5177;50.068;8.156;2022-08-25T04:36:26;21.40;1.00
10263;DHT22;5177;50.068;8.156;2022-08-25T04:38:51;21.40;99.90
10263;DHT22;5177;50.068;8.156;2022-08-25T04:41:18;21.40;99.90
10263;DHT22;5177;50.068;8.156;2022-08-25T04:43:44;21.40;99.90
10263;DHT22;5177;50.068;8.156;2022-08-25T04:46:11;21.40;1.00
10263;DHT22;5177;50.068;8.156;2022-08-25T04:48:38;21.30;1.00
10263;DHT22;5177;50.068;8.156;2022-08-25T04:51:07;21.30;1.00
10263;DHT22;5177;50.068;8.156;2022-08-25T04:53:33;21.40;1.00
10263;DHT22;5177;50.068;8.156;2022-08-25T04:55:58;21.40;1.00
10263;DHT22;5177;50.068;8.156;2022-08-25T04:58:24;21.40;1.00
10263;DHT22;5177;50.068;8.156;2022-08-25T05:00:49;21.40;15.90
10263;DHT22;5177;50.068;8.156;2022-08-25T05:03:15;21.40;42.00
10263;DHT22;5177;50.068;8.156;2022-08-25T05:05:41;21.40;99.90
10263;DHT22;5177;50.068;8.156;2022-08-25T05:08:07;21.40;99.90
10263;DHT22;5177;50.068;8.156;2022-08-25T05:10:32;21.40;36.80
10263;DHT22;5177;50.068;8.156;2022-08-25T05:12:58;21.40;99.90
10263;DHT22;5177;50.068;8.156;2022-08-25T05:15:26;21.40;99.90
10263;DHT22;5177;50.068;8.156;2022-08-25T05:18:11;21.50;99.90
10263;DHT22;5177;50.068;8.156;2022-08-25T05:20:36;21.50;99.90
10263;DHT22;5177;50.068;8.156;2022-08-25T05:23:02;21.50;99.90
10263;DHT22;5177;50.068;8.156;2022-08-25T05:25:28;21.50;99.90
10263;DHT22;5177;50.068;8.156;2022-08-25T05:27:53;21.60;99.90
10263;DHT22;5177;50.068;8.156;2022-08-25T05:30:19;21.60;99.90
10263;DHT22;5177;50.068;8.156;2022-08-25T05:32:44;21.60;99.90
10263;DHT22;5177;50.068;8.156;2022-08-25T05:35:10;21.70;99.90
10263;DHT22;5177;50.068;8.156;2022-08-25T05:37:36;21.70;99.90
10263;DHT22;5177;50.068;8.156;2022-08-25T05:40:03;21.80;99.90
10263;DHT22;5177;50.068;8.156;2022-08-25T05:42:28;21.80;99.90
10263;DHT22;5177;50.068;8.156;2022-08-25T05:44:54;21.90;99.90
10263;DHT22;5177;50.068;8.156;2022-08-25T05:47:19;22.00;99.90
10263;DHT22;5177;50.068;8.156;2022-08-25T05:49:47;22.00;99.90
10263;DHT22;5177;50.068;8.156;2022-08-25T05:52:12;22.00;99.90
10263;DHT22;5177;50.068;8.156;2022-08-25T05:54:38;22.10;99.90
10263;DHT22;5177;50.068;8.156;2022-08-25T05:57:04;22.20;99.90
10263;DHT22;5177;50.068;8.156;2022-08-25T05:59:30;22.30;99.90
10263;DHT22;5177;50.068;8.156;2022-08-25T06:01:55;22.40;1.00
10263;DHT22;5177;50.068;8.156;2022-08-25T06:04:39;22.40;1.00
10263;DHT22;5177;50.068;8.156;2022-08-25T06:07:05;22.50;1.00
10263;DHT22;5177;50.068;8.156;2022-08-25T06:12:20;22.70;1.00
10263;DHT22;5177;50.068;8.156;2022-08-25T06:14:46;22.80;1.00
10263;DHT22;5177;50.068;8.156;2022-08-25T06:17:14;22.90;99.90
10263;DHT22;5177;50.068;8.156;2022-08-25T06:19:39;23.00;99.90
10263;DHT22;5177;50.068;8.156;2022-08-25T06:22:04;23.10;99.90
10263;DHT22;5177;50.068;8.156;2022-08-25T06:24:30;23.20;1.00
10263;DHT22;5177;50.068;8.156;2022-08-25T06:26:56;23.30;1.00
10263;DHT22;5177;50.068;8.156;2022-08-25T06:29:21;23.50;99.90
10263;DHT22;5177;50.068;8.156;2022-08-25T06:31:47;23.60;1.00
10263;DHT22;5177;50.068;8.156;2022-08-25T06:34:14;23.70;1.00
10263;DHT22;5177;50.068;8.156;2022-08-25T06:36:39;23.70;1.00
10263;DHT22;5177;50.068;8.156;2022-08-25T06:39:05;23.80;1.00
10263;DHT22;5177;50.068;8.156;2022-08-25T06:41:30;23.90;1.00
10263;DHT22;5177;50.068;8.156;2022-08-25T06:43:56;24.10;99.90
10263;DHT22;5177;50.068;8.156;2022-08-25T06:46:23;24.20;99.90
10263;DHT22;5177;50.068;8.156;2022-08-25T06:48:51;24.30;1.00
10263;DHT22;5177;50.068;8.156;2022-08-25T06:54:07;24.40;99.90
10263;DHT22;5177;50.068;8.156;2022-08-25T06:56:34;24.50;1.00
10263;DHT22;5177;50.068;8.156;2022-08-25T06:59:00;24.60;39.20
10263;DHT22;5177;50.068;8.156;2022-08-25T07:01:26;24.70;1.00
10263;DHT22;5177;50.068;8.156;2022-08-25T07:03:55;24.80;1.00
10263;DHT22;5177;50.068;8.156;2022-08-25T07:06:25;24.90;99.90
10263;DHT22;5177;50.068;8.156;2022-08-25T07:08:51;25.00;1.00
10263;DHT22;5177;50.068;8.156;2022-08-25T07:11:17;25.10;1.00
10263;DHT22;5177;50.068;8.156;2022-08-25T07:13:44;25.20;1.00
10263;DHT22;5177;50.068;8.156;2022-08-25T07:16:10;25.40;99.90
10263;DHT22;5177;50.068;8.156;2022-08-25T07:18:35;25.50;78.00
10263;DHT22;5177;50.068;8.156;2022-08-25T07:21:01;25.70;1.00
10263;DHT22;5177;50.068;8.156;2022-08-25T07:23:27;25.70;1.00
10263;DHT22;5177;50.068;8.156;2022-08-25T07:25:53;25.80;1.00
10263;DHT22;5177;50.068;8.156;2022-08-25T07:28:19;25.90;99.90
10263;DHT22;5177;50.068;8.156;2022-08-25T07:30:45;25.90;99.90
10263;DHT22;5177;50.068;8.156;2022-08-25T07:33:11;26.00;1.00
10263;DHT22;5177;50.068;8.156;2022-08-25T07:35:36;26.10;99.90
10263;DHT22;5177;50.068;8.156;2022-08-25T07:38:02;26.20;99.90
10263;DHT22;5177;50.068;8.156;2022-08-25T07:40:29;26.30;47.40
10263;DHT22;5177;50.068;8.156;2022-08-25T07:42:57;26.50;1.00
10263;DHT22;5177;50.068;8.156;2022-08-25T07:45:28;26.50;1.00
10263;DHT22;5177;50.068;8.156;2022-08-25T07:48:02;26.70;1.00
10263;DHT22;5177;50.068;8.156;2022-08-25T07:53:27;26.80;99.90
10263;DHT22;5177;50.068;8.156;2022-08-25T07:55:53;27.00;99.90
10263;DHT22;5177;50.068;8.156;2022-08-25T07:58:18;27.10;99.90
10263;DHT22;5177;50.068;8.156;2022-08-25T08:00:46;27.10;99.20
10263;DHT22;5177;50.068;8.156;2022-08-25T08:03:12;27.30;1.00
10263;DHT22;5177;50.068;8.156;2022-08-25T08:05:39;27.40;1.00
10263;DHT22;5177;50.068;8.156;2022-08-25T08:08:04;27.50;1.00
10263;DHT22;5177;50.068;8.156;2022-08-25T08:10:30;27.50;1.00
10263;DHT22;5177;50.068;8.156;2022-08-25T08:12:55;27.60;1.00
10263;DHT22;5177;50.068;8.156;2022-08-25T08:15:36;27.70;1.00
10263;DHT22;5177;50.068;8.156;2022-08-25T08:18:02;27.90;99.90
10263;DHT22;5177;50.068;8.156;2022-08-25T08:20:28;27.90;99.90
10263;DHT22;5177;50.068;8.156;2022-08-25T08:22:55;27.80;99.90
10263;DHT22;5177;50.068;8.156;2022-08-25T08:25:21;28.00;99.90
10263;DHT22;5177;50.068;8.156;2022-08-25T08:27:47;28.00;99.90
10263;DHT22;5177;50.068;8.156;2022-08-25T08:30:13;28.10;99.90
10263;DHT22;5177;50.068;8.156;2022-08-25T08:32:38;28.30;18.50
10263;DHT22;5177;50.068;8.156;2022-08-25T08:35:04;28.50;1.00
10263;DHT22;5177;50.068;8.156;2022-08-25T08:37:30;28.60;1.00
10263;DHT22;5177;50.068;8.156;2022-08-25T08:39:56;28.60;1.00
10263;DHT22;5177;50.068;8.156;2022-08-25T08:42:30;28.60;1.00
10263;DHT22;5177;50.068;8.156;2022-08-25T08:45:03;28.70;1.00
10263;DHT22;5177;50.068;8.156;2022-08-25T08:49:59;28.90;1.00
10263;DHT22;5177;50.068;8.156;2022-08-25T08:52:43;29.10;99.90
10263;DHT22;5177;50.068;8.156;2022-08-25T08:55:45;29.10;99.90
10263;DHT22;5177;50.068;8.156;2022-08-25T08:58:14;29.30;99.90
10263;DHT22;5177;50.068;8.156;2022-08-25T09:00:44;29.40;99.90
10263;DHT22;5177;50.068;8.156;2022-08-25T09:03:13;29.50;99.90
10263;DHT22;5177;50.068;8.156;2022-08-25T09:05:46;29.60;99.90
10263;DHT22;5177;50.068;8.156;2022-08-25T09:08:12;29.70;99.90
10263;DHT22;5177;50.068;8.156;2022-08-25T09:10:45;29.80;99.90
10263;DHT22;5177;50.068;8.156;2022-08-25T09:16:06;30.70;37.90
10263;DHT22;5177;50.068;8.156;2022-08-25T09:21:22;30.80;1.00
10263;DHT22;5177;50.068;8.156;2022-08-25T09:26:24;30.70;1.00
10263;DHT22;5177;50.068;8.156;2022-08-25T09:28:58;30.80;1.00
10263;DHT22;5177;50.068;8.156;2022-08-25T09:31:26;30.80;1.00
10263;DHT22;5177;50.068;8.156;2022-08-25T09:36:49;30.80;1.00
10263;DHT22;5177;50.068;8.156;2022-08-25T09:39:17;31.10;1.00
10263;DHT22;5177;50.068;8.156;2022-08-25T09:41:45;31.50;1.00
10263;DHT22;5177;50.068;8.156;2022-08-25T09:44:24;31.70;1.00
10263;DHT22;5177;50.068;8.156;2022-08-25T09:46:54;31.90;1.00
10263;DHT22;5177;50.068;8.156;2022-08-25T09:49:19;31.70;1.00
10263;DHT22;5177;50.068;8.156;2022-08-25T09:51:45;31.40;1.00
10263;DHT22;5177;50.068;8.156;2022-08-25T09:59:21;31.60;1.00
10263;DHT22;5177;50.068;8.156;2022-08-25T10:01:50;31.70;1.00
10263;DHT22;5177;50.068;8.156;2022-08-25T10:04:38;31.70;1.00
10263;DHT22;5177;50.068;8.156;2022-08-25T10:07:03;31.90;1.00
10263;DHT22;5177;50.068;8.156;2022-08-25T10:09:30;31.90;1.00
10263;DHT22;5177;50.068;8.156;2022-08-25T10:11:57;31.70;1.00
10263;DHT22;5177;50.068;8.156;2022-08-25T10:16:51;31.90;1.00
10263;DHT22;5177;50.068;8.156;2022-08-25T10:21:44;31.80;1.00
10263;DHT22;5177;50.068;8.156;2022-08-25T10:24:11;32.00;1.00
10263;DHT22;5177;50.068;8.156;2022-08-25T10:26:47;32.00;99.90
10263;DHT22;5177;50.068;8.156;2022-08-25T10:32:04;32.00;99.90
10263;DHT22;5177;50.068;8.156;2022-08-25T10:34:42;32.20;99.90
10263;DHT22;5177;50.068;8.156;2022-08-25T10:45:32;32.50;99.90
10263;DHT22;5177;50.068;8.156;2022-08-25T10:50:36;32.50;99.90
10263;DHT22;5177;50.068;8.156;2022-08-25T10:53:08;32.60;99.90
10263;DHT22;5177;50.068;8.156;2022-08-25T10:58:11;32.00;99.90
10263;DHT22;5177;50.068;8.156;2022-08-25T11:00:54;31.80;99.90
10263;DHT22;5177;50.068;8.156;2022-08-25T11:03:23;31.90;99.90
10263;DHT22;5177;50.068;8.156;2022-08-25T11:05:54;32.30;99.90
10263;DHT22;5177;50.068;8.156;2022-08-25T11:08:31;32.60;99.90
10263;DHT22;5177;50.068;8.156;2022-08-25T11:19:21;33.70;99.90
10263;DHT22;5177;50.068;8.156;2022-08-25T11:21:52;33.90;99.90
10263;DHT22;5177;50.068;8.156;2022-08-25T11:27:20;34.30;99.90
10263;DHT22;5177;50.068;8.156;2022-08-25T11:30:03;34.20;99.90
10263;DHT22;5177;50.068;8.156;2022-08-25T11:32:31;34.20;99.90
10263;DHT22;5177;50.068;8.156;2022-08-25T11:35:00;34.30;99.90
10263;DHT22;5177;50.068;8.156;2022-08-25T11:37:26;34.10;99.90
10263;DHT22;5177;50.068;8.156;2022-08-25T11:40:13;34.30;99.90
10263;DHT22;5177;50.068;8.156;2022-08-25T11:42:45;34.50;99.90
10263;DHT22;5177;50.068;8.156;2022-08-25T11:48:10;34.20;99.90
10263;DHT22;5177;50.068;8.156;2022-08-25T11:53:25;34.10;99.90
10263;DHT22;5177;50.068;8.156;2022-08-25T11:55:51;33.50;99.90
10263;DHT22;5177;50.068;8.156;2022-08-25T12:00:49;33.40;99.90
10263;DHT22;5177;50.068;8.156;2022-08-25T12:19:22;33.50;99.90
10263;DHT22;5177;50.068;8.156;2022-08-25T12:21:48;33.40;99.90
10263;DHT22;5177;50.068;8.156;2022-08-25T12:24:15;33.20;99.90
10263;DHT22;5177;50.068;8.156;2022-08-25T12:26:44;32.70;99.90
10263;DHT22;5177;50.068;8.156;2022-08-25T12:29:10;32.70;99.90
10263;DHT22;5177;50.068;8.156;2022-08-25T12:31:44;33.20;99.90
10263;DHT22;5177;50.068;8.156;2022-08-25T12:36:58;33.40;99.90
10263;DHT22;5177;50.068;8.156;2022-08-25T12:40:08;33.90;99.90
10263;DHT22;5177;50.068;8.156;2022-08-25T12:47:32;34.80;99.90
10263;DHT22;5177;50.068;8.156;2022-08-25T12:52:42;35.50;99.90
10263;DHT22;5177;50.068;8.156;2022-08-25T12:55:08;35.70;99.90
10263;DHT22;5177;50.068;8.156;2022-08-25T12:57:44;35.10;99.90
10263;DHT22;5177;50.068;8.156;2022-08-25T13:06:14;33.90;99.90
10263;DHT22;5177;50.068;8.156;2022-08-25T13:11:19;34.30;99.90
10263;DHT22;5177;50.068;8.156;2022-08-25T13:16:39;35.00;99.90
10263;DHT22;5177;50.068;8.156;2022-08-25T13:19:05;35.30;99.90
10263;DHT22;5177;50.068;8.156;2022-08-25T13:23:57;35.60;99.90
10263;DHT22;5177;50.068;8.156;2022-08-25T13:26:27;35.80;99.90
10263;DHT22;5177;50.068;8.156;2022-08-25T13:28:58;35.90;99.90
10263;DHT22;5177;50.068;8.156;2022-08-25T13:31:24;35.70;99.90
10263;DHT22;5177;50.068;8.156;2022-08-25T13:33:57;35.90;99.90
10263;DHT22;5177;50.068;8.156;2022-08-25T13:36:25;35.80;99.90
10263;DHT22;5177;50.068;8.156;2022-08-25T13:39:20;35.70;99.90
10263;DHT22;5177;50.068;8.156;2022-08-25T13:41:48;35.80;99.90
10263;DHT22;5177;50.068;8.156;2022-08-25T13:44:14;35.60;99.90
10263;DHT22;5177;50.068;8.156;2022-08-25T13:46:46;35.70;99.90
10263;DHT22;5177;50.068;8.156;2022-08-25T13:49:24;35.90;99.90
10263;DHT22;5177;50.068;8.156;2022-08-25T13:51:50;35.70;99.90
10263;DHT22;5177;50.068;8.156;2022-08-25T13:54:23;35.90;99.90
10263;DHT22;5177;50.068;8.156;2022-08-25T13:56:49;36.10;99.90
10263;DHT22;5177;50.068;8.156;2022-08-25T13:59:19;36.10;99.90
10263;DHT22;5177;50.068;8.156;2022-08-25T14:01:47;36.30;99.90
10263;DHT22;5177;50.068;8.156;2022-08-25T14:04:20;36.30;99.90
10263;DHT22;5177;50.068;8.156;2022-08-25T14:06:46;36.60;99.90
10263;DHT22;5177;50.068;8.156;2022-08-25T14:09:13;36.90;99.90
10263;DHT22;5177;50.068;8.156;2022-08-25T14:11:45;37.00;99.90
10263;DHT22;5177;50.068;8.156;2022-08-25T14:14:32;37.10;99.90
10263;DHT22;5177;50.068;8.156;2022-08-25T14:19:29;37.30;99.90
10263;DHT22;5177;50.068;8.156;2022-08-25T14:21:54;38.10;99.90
10263;DHT22;5177;50.068;8.156;2022-08-25T14:24:23;39.20;99.90
10263;DHT22;5177;50.068;8.156;2022-08-25T14:26:48;39.80;99.90
10263;DHT22;5177;50.068;8.156;2022-08-25T14:29:14;40.40;99.90
10263;DHT22;5177;50.068;8.156;2022-08-25T14:31:41;40.80;99.90
10263;DHT22;5177;50.068;8.156;2022-08-25T14:34:21;40.80;99.90
10263;DHT22;5177;50.068;8.156;2022-08-25T14:36:47;40.80;99.90
10263;DHT22;5177;50.068;8.156;2022-08-25T14:39:14;41.00;99.90
10263;DHT22;5177;50.068;8.156;2022-08-25T14:41:40;41.60;99.90
10263;DHT22;5177;50.068;8.156;2022-08-25T14:44:06;41.60;99.90
10263;DHT22;5177;50.068;8.156;2022-08-25T14:46:32;41.20;99.90
10263;DHT22;5177;50.068;8.156;2022-08-25T14:48:59;41.20;99.90
10263;DHT22;5177;50.068;8.156;2022-08-25T14:51:26;41.40;99.90
10263;DHT22;5177;50.068;8.156;2022-08-25T14:53:53;41.50;99.90
10263;DHT22;5177;50.068;8.156;2022-08-25T14:56:20;41.80;99.90
10263;DHT22;5177;50.068;8.156;2022-08-25T14:58:45;41.60;99.90
10263;DHT22;5177;50.068;8.156;2022-08-25T15:01:15;41.40;99.90
10263;DHT22;5177;50.068;8.156;2022-08-25T15:03:42;41.00;99.90
10263;DHT22;5177;50.068;8.156;2022-08-25T15:06:09;40.60;99.90
10263;DHT22;5177;50.068;8.156;2022-08-25T15:08:35;39.60;99.90
10263;DHT22;5177;50.068;8.156;2022-08-25T15:11:19;38.80;99.90
10263;DHT22;5177;50.068;8.156;2022-08-25T15:13:45;37.60;99.90
10263;DHT22;5177;50.068;8.156;2022-08-25T15:16:12;37.50;99.90
10263;DHT22;5177;50.068;8.156;2022-08-25T15:18:40;38.10;99.90
10263;DHT22;5177;50.068;8.156;2022-08-25T15:21:06;38.90;99.90
10263;DHT22;5177;50.068;8.156;2022-08-25T15:23:32;39.30;99.90
10263;DHT22;5177;50.068;8.156;2022-08-25T15:25:58;39.90;99.90
10263;DHT22;5177;50.068;8.156;2022-08-25T15:28:23;40.40;99.90
10263;DHT22;5177;50.068;8.156;2022-08-25T15:30:49;40.00;99.90
10263;DHT22;5177;50.068;8.156;2022-08-25T15:33:15;39.60;99.90
10263;DHT22;5177;50.068;8.156;2022-08-25T15:35:41;39.10;99.90
10263;DHT22;5177;50.068;8.156;2022-08-25T15:38:07;38.60;99.90
10263;DHT22;5177;50.068;8.156;2022-08-25T15:40:32;37.60;99.90
10263;DHT22;5177;50.068;8.156;2022-08-25T15:43:01;37.20;99.90
10263;DHT22;5177;50.068;8.156;2022-08-25T15:45:27;37.20;99.90
10263;DHT22;5177;50.068;8.156;2022-08-25T15:47:53;36.80;99.90
10263;DHT22;5177;50.068;8.156;2022-08-25T15:50:19;36.20;99.90
10263;DHT22;5177;50.068;8.156;2022-08-25T15:52:45;35.40;99.90
10263;DHT22;5177;50.068;8.156;2022-08-25T15:55:11;34.80;99.90
10263;DHT22;5177;50.068;8.156;2022-08-25T15:57:37;34.20;99.90
10263;DHT22;5177;50.068;8.156;2022-08-25T16:00:04;33.70;99.90
10263;DHT22;5177;50.068;8.156;2022-08-25T16:02:30;33.40;99.90
10263;DHT22;5177;50.068;8.156;2022-08-25T16:04:57;33.00;99.90
10263;DHT22;5177;50.068;8.156;2022-08-25T16:07:25;32.70;99.90
10263;DHT22;5177;50.068;8.156;2022-08-25T16:09:54;32.50;99.90
10263;DHT22;5177;50.068;8.156;2022-08-25T16:12:19;32.20;99.90
10263;DHT22;5177;50.068;8.156;2022-08-25T16:14:45;32.10;99.90
10263;DHT22;5177;50.068;8.156;2022-08-25T16:20:10;31.90;99.90
10263;DHT22;5177;50.068;8.156;2022-08-25T16:22:45;31.80;99.90
10263;DHT22;5177;50.068;8.156;2022-08-25T16:25:11;31.80;99.90
10263;DHT22;5177;50.068;8.156;2022-08-25T16:27:36;31.80;99.90
10263;DHT22;5177;50.068;8.156;2022-08-25T16:30:02;31.80;99.90
10263;DHT22;5177;50.068;8.156;2022-08-25T16:32:28;31.70;99.90
10263;DHT22;5177;50.068;8.156;2022-08-25T16:34:54;31.60;99.90
10263;DHT22;5177;50.068;8.156;2022-08-25T16:37:19;31.50;99.90
10263;DHT22;5177;50.068;8.156;2022-08-25T16:39:45;31.40;99.90
10263;DHT22;5177;50.068;8.156;2022-08-25T16:42:10;31.40;99.90
10263;DHT22;5177;50.068;8.156;2022-08-25T16:44:36;31.40;99.90
10263;DHT22;5177;50.068;8.156;2022-08-25T16:47:03;31.30;99.90
10263;DHT22;5177;50.068;8.156;2022-08-25T16:49:28;31.30;99.90
10263;DHT22;5177;50.068;8.156;2022-08-25T16:51:55;31.20;99.90
10263;DHT22;5177;50.068;8.156;2022-08-25T16:54:21;31.10;99.90
10263;DHT22;5177;50.068;8.156;2022-08-25T16:57:05;31.10;99.90
10263;DHT22;5177;50.068;8.156;2022-08-25T16:59:30;30.90;99.90
10263;DHT22;5177;50.068;8.156;2022-08-25T17:01:56;30.90;99.90
10263;DHT22;5177;50.068;8.156;2022-08-25T17:04:21;30.80;99.90
10263;DHT22;5177;50.068;8.156;2022-08-25T17:06:47;30.70;99.90
10263;DHT22;5177;50.068;8.156;2022-08-25T17:09:12;30.60;99.90
10263;DHT22;5177;50.068;8.156;2022-08-25T17:11:39;30.50;99.90
10263;DHT22;5177;50.068;8.156;2022-08-25T17:14:07;30.50;99.90
10263;DHT22;5177;50.068;8.156;2022-08-25T17:16:33;30.50;99.90
10263;DHT22;5177;50.068;8.156;2022-08-25T17:18:59;30.50;99.90
10263;DHT22;5177;50.068;8.156;2022-08-25T17:21:25;30.40;99.90
10263;DHT22;5177;50.068;8.156;2022-08-25T17:23:52;30.40;99.90
10263;DHT22;5177;50.068;8.156;2022-08-25T17:26:18;30.30;99.90
10263;DHT22;5177;50.068;8.156;2022-08-25T17:28:44;30.30;99.90
10263;DHT22;5177;50.068;8.156;2022-08-25T17:31:10;30.20;99.90
10263;DHT22;5177;50.068;8.156;2022-08-25T17:33:36;30.10;99.90
10263;DHT22;5177;50.068;8.156;2022-08-25T17:36:02;30.10;99.90
10263;DHT22;5177;50.068;8.156;2022-08-25T17:38:29;30.10;99.90
10263;DHT22;5177;50.068;8.156;2022-08-25T17:40:58;30.00;99.90
10263;DHT22;5177;50.068;8.156;2022-08-25T17:43:25;30.00;1.00
10263;DHT22;5177;50.068;8.156;2022-08-25T17:45:50;30.00;1.00
10263;DHT22;5177;50.068;8.156;2022-08-25T17:48:17;29.90;1.00
10263;DHT22;5177;50.068;8.156;2022-08-25T17:50:43;29.80;1.00
10263;DHT22;5177;50.068;8.156;2022-08-25T17:53:09;29.70;1.00
10263;DHT22;5177;50.068;8.156;2022-08-25T17:55:36;29.60;1.00